Kezdőlap
METAR-TAF:

METAR-TAF

Repülőterek :

Japanese Ground Self Defense Force

Tokachi-Obihiro, Japán

földrajzi szélesség: 42-54N, földrajzi hosszúság: 143-10E, magasság: 84 m

Jelenlegi meteorológiai megfigyelések

A jelentés 6 órával és 45 perccel ezelõtt készült, 07:26 UTC
Különbözõ irányokból fújó szél 3 kt
Hőmérséklet 10°C
Páratartalom 100%
Légköri nyomás 1003 hPa
Látótávolság: 2000 m
Szórványos felhőzet 300 lábon
Szakadozott felhőzet 600 lábon
Szakadozott felhőzet 900 lábon
enyhe záporok, Párásság

METAR: RJCT 250726Z VRB03KT 2000 -SHRA BR SCT003 BKN006 BKN009 10/10 Q1003 RMK 3ST003 5ST006 7ST009 A2962

Idő: 23:11 (14:11 UTC)


TAF: hiányzik

Meteorológiai megfigyelések és előrejelzések több, mint 4000 repülőtéren (METAR és TAF jelentéseket).

A térképen piros és sárga pontok jelzik az elérhető meteorológiai állomásokat.

Mozgassa az egeret a pont fölött, hogy megjelenjen az állomás neve.

Azután kattintson az időjárási megfigyelések és előrejelzések megtekintéséhez.

A térkép megváltoztatása: kattintson a fekete keresztel jelölt zöld gombra ráközelítéshez, a vonallal jelölt zöld gombra távolításhoz, vagy a zöld nyilakra a szomszédos térképek eléréséhez.


METAR-TAF: